sensor_id;sensor_type;location;lat;lon;timestamp;P1;durP1;ratioP1;P2;durP2;ratioP2
6109;SDS011;3085;49.444;11.054;2024-02-16T00:01:41;6.53;;;3.17;;
6109;SDS011;3085;49.444;11.054;2024-02-16T00:04:08;7.30;;;3.50;;
6109;SDS011;3085;49.444;11.054;2024-02-16T00:06:34;6.60;;;3.20;;
6109;SDS011;3085;49.444;11.054;2024-02-16T00:09:01;7.30;;;2.80;;
6109;SDS011;3085;49.444;11.054;2024-02-16T00:11:28;2.63;;;2.13;;
6109;SDS011;3085;49.444;11.054;2024-02-16T00:13:56;2.90;;;2.20;;
6109;SDS011;3085;49.444;11.054;2024-02-16T00:16:23;3.20;;;2.20;;
6109;SDS011;3085;49.444;11.054;2024-02-16T00:18:50;3.50;;;2.33;;
6109;SDS011;3085;49.444;11.054;2024-02-16T00:21:16;7.07;;;2.17;;
6109;SDS011;3085;49.444;11.054;2024-02-16T00:23:43;5.30;;;2.50;;
6109;SDS011;3085;49.444;11.054;2024-02-16T00:26:10;3.03;;;2.43;;
6109;SDS011;3085;49.444;11.054;2024-02-16T00:28:37;5.53;;;3.03;;
6109;SDS011;3085;49.444;11.054;2024-02-16T00:31:05;4.27;;;2.47;;
6109;SDS011;3085;49.444;11.054;2024-02-16T00:33:31;12.37;;;3.27;;
6109;SDS011;3085;49.444;11.054;2024-02-16T00:35:58;5.10;;;2.40;;
6109;SDS011;3085;49.444;11.054;2024-02-16T00:38:25;4.33;;;2.43;;
6109;SDS011;3085;49.444;11.054;2024-02-16T00:40:52;9.37;;;2.60;;
6109;SDS011;3085;49.444;11.054;2024-02-16T00:43:18;4.73;;;2.40;;
6109;SDS011;3085;49.444;11.054;2024-02-16T00:45:45;2.67;;;1.80;;
6109;SDS011;3085;49.444;11.054;2024-02-16T00:48:14;7.17;;;2.27;;
6109;SDS011;3085;49.444;11.054;2024-02-16T00:50:41;3.60;;;2.30;;
6109;SDS011;3085;49.444;11.054;2024-02-16T00:53:08;4.13;;;3.00;;
6109;SDS011;3085;49.444;11.054;2024-02-16T00:55:35;10.70;;;3.50;;
6109;SDS011;3085;49.444;11.054;2024-02-16T00:58:02;5.47;;;3.10;;
6109;SDS011;3085;49.444;11.054;2024-02-16T01:00:29;6.87;;;3.13;;
6109;SDS011;3085;49.444;11.054;2024-02-16T01:02:56;10.07;;;3.83;;
6109;SDS011;3085;49.444;11.054;2024-02-16T01:05:24;7.63;;;3.23;;
6109;SDS011;3085;49.444;11.054;2024-02-16T01:07:51;8.70;;;3.40;;
6109;SDS011;3085;49.444;11.054;2024-02-16T01:10:18;4.77;;;3.47;;
6109;SDS011;3085;49.444;11.054;2024-02-16T01:12:45;6.50;;;2.80;;
6109;SDS011;3085;49.444;11.054;2024-02-16T01:15:12;4.70;;;2.77;;
6109;SDS011;3085;49.444;11.054;2024-02-16T01:17:38;10.20;;;3.03;;
6109;SDS011;3085;49.444;11.054;2024-02-16T01:20:06;3.37;;;2.43;;
6109;SDS011;3085;49.444;11.054;2024-02-16T01:22:36;7.83;;;3.80;;
6109;SDS011;3085;49.444;11.054;2024-02-16T01:25:03;7.67;;;2.70;;
6109;SDS011;3085;49.444;11.054;2024-02-16T01:27:31;5.07;;;2.77;;
6109;SDS011;3085;49.444;11.054;2024-02-16T01:29:58;5.33;;;3.20;;
6109;SDS011;3085;49.444;11.054;2024-02-16T01:32:25;4.43;;;3.00;;
6109;SDS011;3085;49.444;11.054;2024-02-16T01:34:52;13.17;;;4.07;;
6109;SDS011;3085;49.444;11.054;2024-02-16T01:37:19;6.23;;;2.83;;
6109;SDS011;3085;49.444;11.054;2024-02-16T01:39:47;5.40;;;3.23;;
6109;SDS011;3085;49.444;11.054;2024-02-16T01:42:13;8.33;;;3.87;;
6109;SDS011;3085;49.444;11.054;2024-02-16T01:44:40;5.37;;;3.00;;
6109;SDS011;3085;49.444;11.054;2024-02-16T01:47:07;7.23;;;2.87;;
6109;SDS011;3085;49.444;11.054;2024-02-16T01:49:34;5.60;;;3.20;;
6109;SDS011;3085;49.444;11.054;2024-02-16T01:52:02;9.67;;;3.60;;
6109;SDS011;3085;49.444;11.054;2024-02-16T01:54:28;4.80;;;3.20;;
6109;SDS011;3085;49.444;11.054;2024-02-16T01:56:57;9.77;;;3.17;;
6109;SDS011;3085;49.444;11.054;2024-02-16T01:59:24;5.20;;;2.70;;
6109;SDS011;3085;49.444;11.054;2024-02-16T02:01:51;5.07;;;2.83;;
6109;SDS011;3085;49.444;11.054;2024-02-16T02:04:18;8.00;;;3.37;;
6109;SDS011;3085;49.444;11.054;2024-02-16T02:06:45;7.67;;;3.33;;
6109;SDS011;3085;49.444;11.054;2024-02-16T02:09:12;6.43;;;2.93;;
6109;SDS011;3085;49.444;11.054;2024-02-16T02:11:38;7.70;;;3.00;;
6109;SDS011;3085;49.444;11.054;2024-02-16T02:14:06;6.70;;;3.20;;
6109;SDS011;3085;49.444;11.054;2024-02-16T02:16:33;5.60;;;3.33;;
6109;SDS011;3085;49.444;11.054;2024-02-16T02:19:00;4.93;;;3.00;;
6109;SDS011;3085;49.444;11.054;2024-02-16T02:21:27;3.67;;;2.80;;
6109;SDS011;3085;49.444;11.054;2024-02-16T02:23:55;6.27;;;3.27;;
6109;SDS011;3085;49.444;11.054;2024-02-16T02:26:22;8.00;;;2.90;;
6109;SDS011;3085;49.444;11.054;2024-02-16T02:28:48;6.53;;;3.10;;
6109;SDS011;3085;49.444;11.054;2024-02-16T02:31:15;12.97;;;4.03;;
6109;SDS011;3085;49.444;11.054;2024-02-16T02:33:42;5.23;;;3.40;;
6109;SDS011;3085;49.444;11.054;2024-02-16T02:36:08;4.80;;;3.27;;
6109;SDS011;3085;49.444;11.054;2024-02-16T02:38:35;7.97;;;3.60;;
6109;SDS011;3085;49.444;11.054;2024-02-16T02:41:03;8.90;;;3.20;;
6109;SDS011;3085;49.444;11.054;2024-02-16T02:43:30;9.53;;;2.67;;
6109;SDS011;3085;49.444;11.054;2024-02-16T02:45:57;5.20;;;2.90;;
6109;SDS011;3085;49.444;11.054;2024-02-16T02:48:23;3.50;;;2.50;;
6109;SDS011;3085;49.444;11.054;2024-02-16T02:50:50;5.80;;;2.70;;
6109;SDS011;3085;49.444;11.054;2024-02-16T02:53:16;4.33;;;2.30;;
6109;SDS011;3085;49.444;11.054;2024-02-16T02:55:43;4.77;;;2.60;;
6109;SDS011;3085;49.444;11.054;2024-02-16T02:58:11;5.40;;;3.00;;
6109;SDS011;3085;49.444;11.054;2024-02-16T03:00:38;6.97;;;2.57;;
6109;SDS011;3085;49.444;11.054;2024-02-16T03:03:06;6.27;;;3.30;;
6109;SDS011;3085;49.444;11.054;2024-02-16T03:05:33;5.83;;;2.83;;
6109;SDS011;3085;49.444;11.054;2024-02-16T03:07:59;4.33;;;2.83;;
6109;SDS011;3085;49.444;11.054;2024-02-16T03:10:27;13.37;;;4.33;;
6109;SDS011;3085;49.444;11.054;2024-02-16T03:12:59;4.00;;;2.77;;
6109;SDS011;3085;49.444;11.054;2024-02-16T03:15:27;3.33;;;2.23;;
6109;SDS011;3085;49.444;11.054;2024-02-16T03:17:54;7.37;;;2.97;;
6109;SDS011;3085;49.444;11.054;2024-02-16T03:20:21;4.13;;;2.60;;
6109;SDS011;3085;49.444;11.054;2024-02-16T03:22:48;5.87;;;2.70;;
6109;SDS011;3085;49.444;11.054;2024-02-16T03:25:15;5.63;;;2.30;;
6109;SDS011;3085;49.444;11.054;2024-02-16T03:27:41;3.83;;;2.00;;
6109;SDS011;3085;49.444;11.054;2024-02-16T03:30:09;3.20;;;2.40;;
6109;SDS011;3085;49.444;11.054;2024-02-16T03:32:37;6.97;;;2.57;;
6109;SDS011;3085;49.444;11.054;2024-02-16T03:35:04;3.57;;;2.60;;
6109;SDS011;3085;49.444;11.054;2024-02-16T03:37:31;4.43;;;2.30;;
6109;SDS011;3085;49.444;11.054;2024-02-16T03:39:58;6.03;;;3.10;;
6109;SDS011;3085;49.444;11.054;2024-02-16T03:42:25;3.93;;;2.40;;
6109;SDS011;3085;49.444;11.054;2024-02-16T03:44:52;4.27;;;2.50;;
6109;SDS011;3085;49.444;11.054;2024-02-16T03:47:18;3.67;;;2.30;;
6109;SDS011;3085;49.444;11.054;2024-02-16T03:49:46;8.13;;;3.50;;
6109;SDS011;3085;49.444;11.054;2024-02-16T03:52:13;4.07;;;2.63;;
6109;SDS011;3085;49.444;11.054;2024-02-16T03:54:40;6.20;;;2.77;;
6109;SDS011;3085;49.444;11.054;2024-02-16T03:57:07;6.20;;;2.40;;
6109;SDS011;3085;49.444;11.054;2024-02-16T03:59:36;6.93;;;3.47;;
6109;SDS011;3085;49.444;11.054;2024-02-16T04:02:03;9.50;;;3.27;;
6109;SDS011;3085;49.444;11.054;2024-02-16T04:04:29;7.30;;;2.80;;
6109;SDS011;3085;49.444;11.054;2024-02-16T04:06:57;4.07;;;2.80;;
6109;SDS011;3085;49.444;11.054;2024-02-16T04:09:25;3.60;;;2.13;;
6109;SDS011;3085;49.444;11.054;2024-02-16T04:11:51;5.27;;;2.60;;
6109;SDS011;3085;49.444;11.054;2024-02-16T04:14:18;4.17;;;2.40;;
6109;SDS011;3085;49.444;11.054;2024-02-16T04:16:45;5.17;;;2.80;;
6109;SDS011;3085;49.444;11.054;2024-02-16T04:19:12;7.77;;;3.00;;
6109;SDS011;3085;49.444;11.054;2024-02-16T04:21:39;7.13;;;3.03;;
6109;SDS011;3085;49.444;11.054;2024-02-16T04:24:07;7.00;;;3.60;;
6109;SDS011;3085;49.444;11.054;2024-02-16T04:26:34;7.30;;;3.20;;
6109;SDS011;3085;49.444;11.054;2024-02-16T04:29:01;7.13;;;3.80;;
6109;SDS011;3085;49.444;11.054;2024-02-16T04:31:29;3.60;;;2.80;;
6109;SDS011;3085;49.444;11.054;2024-02-16T04:33:56;4.47;;;2.73;;
6109;SDS011;3085;49.444;11.054;2024-02-16T04:36:22;7.13;;;2.40;;
6109;SDS011;3085;49.444;11.054;2024-02-16T04:38:49;5.90;;;3.47;;
6109;SDS011;3085;49.444;11.054;2024-02-16T04:41:19;5.20;;;3.30;;
6109;SDS011;3085;49.444;11.054;2024-02-16T04:43:46;9.30;;;3.50;;
6109;SDS011;3085;49.444;11.054;2024-02-16T04:46:13;5.63;;;3.00;;
6109;SDS011;3085;49.444;11.054;2024-02-16T04:48:41;8.63;;;4.00;;
6109;SDS011;3085;49.444;11.054;2024-02-16T04:51:08;9.50;;;3.97;;
6109;SDS011;3085;49.444;11.054;2024-02-16T04:53:35;6.67;;;3.63;;
6109;SDS011;3085;49.444;11.054;2024-02-16T04:56:02;5.53;;;3.60;;
6109;SDS011;3085;49.444;11.054;2024-02-16T04:58:31;7.10;;;4.10;;
6109;SDS011;3085;49.444;11.054;2024-02-16T05:00:58;7.70;;;3.43;;
6109;SDS011;3085;49.444;11.054;2024-02-16T05:03:24;12.17;;;4.90;;
6109;SDS011;3085;49.444;11.054;2024-02-16T05:05:51;6.10;;;3.40;;
6109;SDS011;3085;49.444;11.054;2024-02-16T05:08:18;7.30;;;3.90;;
6109;SDS011;3085;49.444;11.054;2024-02-16T05:10:47;6.63;;;3.77;;
6109;SDS011;3085;49.444;11.054;2024-02-16T05:13:14;8.60;;;4.93;;
6109;SDS011;3085;49.444;11.054;2024-02-16T05:15:42;8.23;;;4.43;;
6109;SDS011;3085;49.444;11.054;2024-02-16T05:18:09;10.67;;;4.53;;
6109;SDS011;3085;49.444;11.054;2024-02-16T05:20:37;11.20;;;5.10;;
6109;SDS011;3085;49.444;11.054;2024-02-16T05:23:04;11.30;;;5.30;;
6109;SDS011;3085;49.444;11.054;2024-02-16T05:25:31;9.60;;;4.20;;
6109;SDS011;3085;49.444;11.054;2024-02-16T05:27:57;33.67;;;5.80;;
6109;SDS011;3085;49.444;11.054;2024-02-16T05:30:25;9.30;;;4.30;;
6109;SDS011;3085;49.444;11.054;2024-02-16T05:32:53;9.57;;;5.07;;
6109;SDS011;3085;49.444;11.054;2024-02-16T05:35:23;8.83;;;4.10;;
6109;SDS011;3085;49.444;11.054;2024-02-16T05:37:54;11.47;;;4.77;;
6109;SDS011;3085;49.444;11.054;2024-02-16T05:40:21;10.57;;;4.73;;
6109;SDS011;3085;49.444;11.054;2024-02-16T05:42:52;10.03;;;4.53;;
6109;SDS011;3085;49.444;11.054;2024-02-16T05:45:19;11.77;;;5.07;;
6109;SDS011;3085;49.444;11.054;2024-02-16T05:47:46;7.57;;;4.37;;
6109;SDS011;3085;49.444;11.054;2024-02-16T05:50:16;10.00;;;4.90;;
6109;SDS011;3085;49.444;11.054;2024-02-16T05:52:43;10.00;;;4.80;;
6109;SDS011;3085;49.444;11.054;2024-02-16T05:55:11;5.20;;;3.40;;
6109;SDS011;3085;49.444;11.054;2024-02-16T05:57:38;12.13;;;5.47;;
6109;SDS011;3085;49.444;11.054;2024-02-16T06:00:05;8.37;;;4.93;;
6109;SDS011;3085;49.444;11.054;2024-02-16T06:02:34;8.90;;;5.07;;
6109;SDS011;3085;49.444;11.054;2024-02-16T06:05:01;9.30;;;5.03;;
6109;SDS011;3085;49.444;11.054;2024-02-16T06:07:31;8.60;;;4.40;;
6109;SDS011;3085;49.444;11.054;2024-02-16T06:09:57;13.23;;;5.50;;
6109;SDS011;3085;49.444;11.054;2024-02-16T06:12:24;9.23;;;4.03;;
6109;SDS011;3085;49.444;11.054;2024-02-16T06:14:51;10.20;;;4.40;;
6109;SDS011;3085;49.444;11.054;2024-02-16T06:17:18;7.57;;;4.33;;
6109;SDS011;3085;49.444;11.054;2024-02-16T06:19:45;10.07;;;5.00;;
6109;SDS011;3085;49.444;11.054;2024-02-16T06:22:13;9.10;;;4.93;;
6109;SDS011;3085;49.444;11.054;2024-02-16T06:24:41;8.87;;;4.07;;
6109;SDS011;3085;49.444;11.054;2024-02-16T06:27:08;11.10;;;4.93;;
6109;SDS011;3085;49.444;11.054;2024-02-16T06:29:34;8.37;;;4.67;;
6109;SDS011;3085;49.444;11.054;2024-02-16T06:32:01;9.97;;;4.67;;
6109;SDS011;3085;49.444;11.054;2024-02-16T06:34:29;10.17;;;4.67;;
6109;SDS011;3085;49.444;11.054;2024-02-16T06:36:56;13.57;;;5.20;;
6109;SDS011;3085;49.444;11.054;2024-02-16T06:39:22;15.17;;;5.33;;
6109;SDS011;3085;49.444;11.054;2024-02-16T06:41:51;12.73;;;5.30;;
6109;SDS011;3085;49.444;11.054;2024-02-16T06:44:17;10.27;;;5.63;;
6109;SDS011;3085;49.444;11.054;2024-02-16T06:46:44;11.90;;;4.97;;
6109;SDS011;3085;49.444;11.054;2024-02-16T06:49:11;11.87;;;5.30;;
6109;SDS011;3085;49.444;11.054;2024-02-16T06:51:38;13.13;;;5.70;;
6109;SDS011;3085;49.444;11.054;2024-02-16T06:54:05;8.60;;;5.83;;
6109;SDS011;3085;49.444;11.054;2024-02-16T06:56:34;11.87;;;4.83;;
6109;SDS011;3085;49.444;11.054;2024-02-16T06:59:03;11.70;;;5.10;;
6109;SDS011;3085;49.444;11.054;2024-02-16T07:01:30;9.83;;;5.63;;
6109;SDS011;3085;49.444;11.054;2024-02-16T07:03:57;16.07;;;4.90;;
6109;SDS011;3085;49.444;11.054;2024-02-16T07:06:23;6.93;;;4.30;;
6109;SDS011;3085;49.444;11.054;2024-02-16T07:08:51;10.90;;;6.00;;
6109;SDS011;3085;49.444;11.054;2024-02-16T07:11:17;11.50;;;4.63;;
6109;SDS011;3085;49.444;11.054;2024-02-16T07:13:46;14.10;;;5.60;;
6109;SDS011;3085;49.444;11.054;2024-02-16T07:16:14;13.00;;;6.80;;
6109;SDS011;3085;49.444;11.054;2024-02-16T07:18:40;12.53;;;5.30;;
6109;SDS011;3085;49.444;11.054;2024-02-16T07:21:08;9.47;;;5.27;;
6109;SDS011;3085;49.444;11.054;2024-02-16T07:23:35;9.23;;;5.40;;
6109;SDS011;3085;49.444;11.054;2024-02-16T07:26:02;13.00;;;5.80;;
6109;SDS011;3085;49.444;11.054;2024-02-16T07:28:29;8.87;;;5.20;;
6109;SDS011;3085;49.444;11.054;2024-02-16T07:30:57;8.40;;;3.77;;
6109;SDS011;3085;49.444;11.054;2024-02-16T07:33:25;10.67;;;4.80;;
6109;SDS011;3085;49.444;11.054;2024-02-16T07:35:53;6.70;;;5.03;;
6109;SDS011;3085;49.444;11.054;2024-02-16T07:38:20;7.90;;;4.87;;
6109;SDS011;3085;49.444;11.054;2024-02-16T07:40:47;7.83;;;5.10;;
6109;SDS011;3085;49.444;11.054;2024-02-16T07:43:15;9.63;;;5.13;;
6109;SDS011;3085;49.444;11.054;2024-02-16T07:45:42;11.37;;;5.20;;
6109;SDS011;3085;49.444;11.054;2024-02-16T07:48:09;10.23;;;5.10;;
6109;SDS011;3085;49.444;11.054;2024-02-16T07:50:37;9.33;;;4.87;;
6109;SDS011;3085;49.444;11.054;2024-02-16T07:53:03;14.57;;;6.30;;
6109;SDS011;3085;49.444;11.054;2024-02-16T07:55:30;12.33;;;6.47;;
6109;SDS011;3085;49.444;11.054;2024-02-16T07:57:57;11.23;;;6.03;;
6109;SDS011;3085;49.444;11.054;2024-02-16T08:00:24;10.00;;;5.40;;
6109;SDS011;3085;49.444;11.054;2024-02-16T08:02:51;10.90;;;5.57;;
6109;SDS011;3085;49.444;11.054;2024-02-16T08:05:18;13.93;;;5.33;;
6109;SDS011;3085;49.444;11.054;2024-02-16T08:07:46;12.03;;;5.77;;
6109;SDS011;3085;49.444;11.054;2024-02-16T08:10:13;9.37;;;5.73;;
6109;SDS011;3085;49.444;11.054;2024-02-16T08:12:40;11.13;;;6.23;;
6109;SDS011;3085;49.444;11.054;2024-02-16T08:15:07;15.00;;;6.10;;
6109;SDS011;3085;49.444;11.054;2024-02-16T08:17:35;11.17;;;6.33;;
6109;SDS011;3085;49.444;11.054;2024-02-16T08:20:03;10.33;;;5.20;;
6109;SDS011;3085;49.444;11.054;2024-02-16T08:22:30;16.73;;;7.63;;
6109;SDS011;3085;49.444;11.054;2024-02-16T08:24:58;16.43;;;6.83;;
6109;SDS011;3085;49.444;11.054;2024-02-16T08:27:25;13.90;;;5.33;;
6109;SDS011;3085;49.444;11.054;2024-02-16T08:29:52;9.87;;;5.13;;
6109;SDS011;3085;49.444;11.054;2024-02-16T08:32:19;12.53;;;6.03;;
6109;SDS011;3085;49.444;11.054;2024-02-16T08:34:46;8.37;;;4.77;;
6109;SDS011;3085;49.444;11.054;2024-02-16T08:37:15;8.50;;;5.10;;
6109;SDS011;3085;49.444;11.054;2024-02-16T08:39:42;9.17;;;5.37;;
6109;SDS011;3085;49.444;11.054;2024-02-16T08:42:10;10.23;;;5.27;;
6109;SDS011;3085;49.444;11.054;2024-02-16T08:44:37;9.40;;;5.50;;
6109;SDS011;3085;49.444;11.054;2024-02-16T08:47:05;12.07;;;5.67;;
6109;SDS011;3085;49.444;11.054;2024-02-16T08:49:32;9.20;;;5.13;;
6109;SDS011;3085;49.444;11.054;2024-02-16T08:51:59;10.83;;;5.40;;
6109;SDS011;3085;49.444;11.054;2024-02-16T08:54:25;12.63;;;5.80;;
6109;SDS011;3085;49.444;11.054;2024-02-16T08:56:52;11.83;;;6.13;;
6109;SDS011;3085;49.444;11.054;2024-02-16T08:59:21;7.90;;;4.40;;
6109;SDS011;3085;49.444;11.054;2024-02-16T09:01:48;24.93;;;6.00;;
6109;SDS011;3085;49.444;11.054;2024-02-16T09:04:14;12.67;;;6.37;;
6109;SDS011;3085;49.444;11.054;2024-02-16T09:06:41;11.40;;;6.17;;
6109;SDS011;3085;49.444;11.054;2024-02-16T09:09:08;12.17;;;5.73;;
6109;SDS011;3085;49.444;11.054;2024-02-16T09:11:35;13.10;;;5.70;;
6109;SDS011;3085;49.444;11.054;2024-02-16T09:14:02;16.23;;;7.10;;
6109;SDS011;3085;49.444;11.054;2024-02-16T09:16:31;10.67;;;5.60;;
6109;SDS011;3085;49.444;11.054;2024-02-16T09:18:58;15.27;;;5.50;;
6109;SDS011;3085;49.444;11.054;2024-02-16T09:21:25;12.10;;;5.57;;
6109;SDS011;3085;49.444;11.054;2024-02-16T09:23:54;19.47;;;7.00;;
6109;SDS011;3085;49.444;11.054;2024-02-16T09:26:23;20.17;;;5.70;;
6109;SDS011;3085;49.444;11.054;2024-02-16T09:28:51;13.47;;;6.27;;
6109;SDS011;3085;49.444;11.054;2024-02-16T09:31:19;14.03;;;5.87;;
6109;SDS011;3085;49.444;11.054;2024-02-16T09:33:47;15.33;;;5.73;;
6109;SDS011;3085;49.444;11.054;2024-02-16T09:36:16;13.17;;;7.53;;
6109;SDS011;3085;49.444;11.054;2024-02-16T09:38:43;14.60;;;7.13;;
6109;SDS011;3085;49.444;11.054;2024-02-16T09:41:10;9.20;;;4.93;;
6109;SDS011;3085;49.444;11.054;2024-02-16T09:43:37;12.50;;;5.90;;
6109;SDS011;3085;49.444;11.054;2024-02-16T09:46:04;9.80;;;5.60;;
6109;SDS011;3085;49.444;11.054;2024-02-16T09:48:31;10.03;;;5.47;;
6109;SDS011;3085;49.444;11.054;2024-02-16T09:50:59;9.37;;;5.67;;
6109;SDS011;3085;49.444;11.054;2024-02-16T09:53:27;10.63;;;5.30;;
6109;SDS011;3085;49.444;11.054;2024-02-16T09:55:54;10.43;;;5.70;;
6109;SDS011;3085;49.444;11.054;2024-02-16T09:58:21;10.50;;;5.43;;
6109;SDS011;3085;49.444;11.054;2024-02-16T10:00:49;16.43;;;4.63;;
6109;SDS011;3085;49.444;11.054;2024-02-16T10:03:29;9.30;;;4.70;;
6109;SDS011;3085;49.444;11.054;2024-02-16T10:06:08;8.83;;;5.10;;
6109;SDS011;3085;49.444;11.054;2024-02-16T10:08:46;13.17;;;5.13;;
6109;SDS011;3085;49.444;11.054;2024-02-16T10:11:15;10.03;;;4.87;;
6109;SDS011;3085;49.444;11.054;2024-02-16T10:13:43;12.77;;;5.57;;
6109;SDS011;3085;49.444;11.054;2024-02-16T10:16:20;18.10;;;6.67;;
6109;SDS011;3085;49.444;11.054;2024-02-16T10:18:47;18.80;;;5.90;;
6109;SDS011;3085;49.444;11.054;2024-02-16T10:21:23;11.87;;;7.27;;
6109;SDS011;3085;49.444;11.054;2024-02-16T10:23:59;9.33;;;5.40;;
6109;SDS011;3085;49.444;11.054;2024-02-16T10:26:28;9.33;;;5.83;;
6109;SDS011;3085;49.444;11.054;2024-02-16T10:28:55;11.30;;;5.70;;
6109;SDS011;3085;49.444;11.054;2024-02-16T10:31:23;23.73;;;8.53;;
6109;SDS011;3085;49.444;11.054;2024-02-16T10:33:56;8.77;;;5.30;;
6109;SDS011;3085;49.444;11.054;2024-02-16T10:36:25;9.50;;;5.40;;
6109;SDS011;3085;49.444;11.054;2024-02-16T10:38:55;10.40;;;6.10;;
6109;SDS011;3085;49.444;11.054;2024-02-16T10:41:25;10.97;;;4.73;;
6109;SDS011;3085;49.444;11.054;2024-02-16T10:43:54;9.43;;;4.93;;
6109;SDS011;3085;49.444;11.054;2024-02-16T10:46:22;9.07;;;5.10;;
6109;SDS011;3085;49.444;11.054;2024-02-16T10:48:49;11.83;;;5.67;;
6109;SDS011;3085;49.444;11.054;2024-02-16T10:51:17;14.37;;;4.60;;
6109;SDS011;3085;49.444;11.054;2024-02-16T10:53:49;6.13;;;4.10;;
6109;SDS011;3085;49.444;11.054;2024-02-16T10:56:26;11.80;;;5.40;;
6109;SDS011;3085;49.444;11.054;2024-02-16T10:58:54;18.50;;;5.13;;
6109;SDS011;3085;49.444;11.054;2024-02-16T11:01:20;9.40;;;5.57;;
6109;SDS011;3085;49.444;11.054;2024-02-16T11:03:47;9.13;;;4.40;;
6109;SDS011;3085;49.444;11.054;2024-02-16T11:06:14;8.10;;;5.17;;
6109;SDS011;3085;49.444;11.054;2024-02-16T11:08:42;6.93;;;4.57;;
6109;SDS011;3085;49.444;11.054;2024-02-16T11:11:10;8.73;;;4.93;;
6109;SDS011;3085;49.444;11.054;2024-02-16T11:13:38;11.60;;;4.90;;
6109;SDS011;3085;49.444;11.054;2024-02-16T11:16:06;12.67;;;5.87;;
6109;SDS011;3085;49.444;11.054;2024-02-16T11:18:36;10.20;;;5.77;;
6109;SDS011;3085;49.444;11.054;2024-02-16T11:21:05;12.27;;;5.03;;
6109;SDS011;3085;49.444;11.054;2024-02-16T11:23:34;11.33;;;4.87;;
6109;SDS011;3085;49.444;11.054;2024-02-16T11:26:01;10.97;;;5.60;;
6109;SDS011;3085;49.444;11.054;2024-02-16T11:28:32;7.53;;;4.80;;
6109;SDS011;3085;49.444;11.054;2024-02-16T11:30:59;11.43;;;5.13;;
6109;SDS011;3085;49.444;11.054;2024-02-16T11:33:26;8.87;;;5.27;;
6109;SDS011;3085;49.444;11.054;2024-02-16T11:35:54;17.10;;;5.33;;
6109;SDS011;3085;49.444;11.054;2024-02-16T11:38:21;12.20;;;4.43;;
6109;SDS011;3085;49.444;11.054;2024-02-16T11:40:54;8.37;;;4.97;;
6109;SDS011;3085;49.444;11.054;2024-02-16T11:43:22;11.10;;;5.10;;
6109;SDS011;3085;49.444;11.054;2024-02-16T11:45:51;8.50;;;4.53;;
6109;SDS011;3085;49.444;11.054;2024-02-16T11:48:21;8.03;;;4.83;;
6109;SDS011;3085;49.444;11.054;2024-02-16T11:50:49;13.60;;;6.30;;
6109;SDS011;3085;49.444;11.054;2024-02-16T11:53:24;10.87;;;4.63;;
6109;SDS011;3085;49.444;11.054;2024-02-16T11:55:51;12.57;;;5.03;;
6109;SDS011;3085;49.444;11.054;2024-02-16T11:58:17;8.20;;;4.10;;
6109;SDS011;3085;49.444;11.054;2024-02-16T12:00:45;16.10;;;5.37;;
6109;SDS011;3085;49.444;11.054;2024-02-16T12:03:17;11.70;;;5.00;;
6109;SDS011;3085;49.444;11.054;2024-02-16T12:05:49;9.10;;;4.90;;
6109;SDS011;3085;49.444;11.054;2024-02-16T12:08:16;12.10;;;4.80;;
6109;SDS011;3085;49.444;11.054;2024-02-16T12:10:43;11.77;;;4.60;;
6109;SDS011;3085;49.444;11.054;2024-02-16T12:13:10;10.60;;;4.37;;
6109;SDS011;3085;49.444;11.054;2024-02-16T12:15:37;9.43;;;5.00;;
6109;SDS011;3085;49.444;11.054;2024-02-16T12:18:04;12.53;;;5.20;;
6109;SDS011;3085;49.444;11.054;2024-02-16T12:20:32;21.43;;;4.80;;
6109;SDS011;3085;49.444;11.054;2024-02-16T12:22:59;13.80;;;6.10;;
6109;SDS011;3085;49.444;11.054;2024-02-16T12:25:36;9.77;;;5.43;;
6109;SDS011;3085;49.444;11.054;2024-02-16T12:28:03;8.50;;;5.13;;
6109;SDS011;3085;49.444;11.054;2024-02-16T12:30:30;13.70;;;5.03;;
6109;SDS011;3085;49.444;11.054;2024-02-16T12:32:57;10.10;;;5.13;;
6109;SDS011;3085;49.444;11.054;2024-02-16T12:35:23;12.03;;;5.77;;
6109;SDS011;3085;49.444;11.054;2024-02-16T12:37:51;11.97;;;5.23;;
6109;SDS011;3085;49.444;11.054;2024-02-16T12:40:18;9.43;;;5.37;;
6109;SDS011;3085;49.444;11.054;2024-02-16T12:42:45;9.73;;;5.10;;
6109;SDS011;3085;49.444;11.054;2024-02-16T12:45:12;11.40;;;5.20;;
6109;SDS011;3085;49.444;11.054;2024-02-16T12:47:41;10.07;;;5.13;;
6109;SDS011;3085;49.444;11.054;2024-02-16T12:50:08;9.63;;;4.97;;
6109;SDS011;3085;49.444;11.054;2024-02-16T12:52:35;8.50;;;4.67;;
6109;SDS011;3085;49.444;11.054;2024-02-16T12:55:05;9.20;;;4.27;;
6109;SDS011;3085;49.444;11.054;2024-02-16T12:57:33;12.47;;;4.40;;
6109;SDS011;3085;49.444;11.054;2024-02-16T13:00:00;10.93;;;3.67;;
6109;SDS011;3085;49.444;11.054;2024-02-16T13:02:27;6.67;;;4.23;;
6109;SDS011;3085;49.444;11.054;2024-02-16T13:04:55;10.50;;;4.20;;
6109;SDS011;3085;49.444;11.054;2024-02-16T13:07:21;13.23;;;5.70;;
6109;SDS011;3085;49.444;11.054;2024-02-16T13:09:50;9.00;;;5.03;;
6109;SDS011;3085;49.444;11.054;2024-02-16T13:12:19;10.60;;;5.00;;
6109;SDS011;3085;49.444;11.054;2024-02-16T13:14:48;7.90;;;4.20;;
6109;SDS011;3085;49.444;11.054;2024-02-16T13:17:15;12.20;;;4.80;;
6109;SDS011;3085;49.444;11.054;2024-02-16T13:19:42;11.47;;;5.17;;
6109;SDS011;3085;49.444;11.054;2024-02-16T13:22:08;4.90;;;3.70;;
6109;SDS011;3085;49.444;11.054;2024-02-16T13:24:35;13.93;;;4.30;;
6109;SDS011;3085;49.444;11.054;2024-02-16T13:27:02;9.17;;;4.60;;
6109;SDS011;3085;49.444;11.054;2024-02-16T13:29:31;8.67;;;4.07;;
6109;SDS011;3085;49.444;11.054;2024-02-16T13:31:58;11.90;;;5.60;;
6109;SDS011;3085;49.444;11.054;2024-02-16T13:34:25;15.33;;;5.80;;
6109;SDS011;3085;49.444;11.054;2024-02-16T13:36:52;8.63;;;4.30;;
6109;SDS011;3085;49.444;11.054;2024-02-16T13:39:19;9.60;;;4.20;;
6109;SDS011;3085;49.444;11.054;2024-02-16T13:41:47;7.03;;;4.43;;
6109;SDS011;3085;49.444;11.054;2024-02-16T13:44:16;9.87;;;4.60;;
6109;SDS011;3085;49.444;11.054;2024-02-16T13:46:44;8.53;;;4.20;;
6109;SDS011;3085;49.444;11.054;2024-02-16T13:49:12;10.10;;;4.80;;
6109;SDS011;3085;49.444;11.054;2024-02-16T13:51:39;8.93;;;4.63;;
6109;SDS011;3085;49.444;11.054;2024-02-16T13:54:06;8.90;;;4.70;;
6109;SDS011;3085;49.444;11.054;2024-02-16T13:56:33;11.33;;;5.20;;
6109;SDS011;3085;49.444;11.054;2024-02-16T13:59:01;10.30;;;4.70;;
6109;SDS011;3085;49.444;11.054;2024-02-16T14:01:28;9.30;;;4.50;;
6109;SDS011;3085;49.444;11.054;2024-02-16T14:03:56;10.50;;;4.73;;
6109;SDS011;3085;49.444;11.054;2024-02-16T14:06:23;9.07;;;4.63;;
6109;SDS011;3085;49.444;11.054;2024-02-16T14:08:49;8.90;;;4.50;;
6109;SDS011;3085;49.444;11.054;2024-02-16T14:11:17;8.67;;;4.30;;
6109;SDS011;3085;49.444;11.054;2024-02-16T14:13:44;7.40;;;4.30;;
6109;SDS011;3085;49.444;11.054;2024-02-16T14:16:11;19.63;;;5.03;;
6109;SDS011;3085;49.444;11.054;2024-02-16T14:18:37;9.47;;;5.80;;
6109;SDS011;3085;49.444;11.054;2024-02-16T14:21:05;17.87;;;6.30;;
6109;SDS011;3085;49.444;11.054;2024-02-16T14:23:32;11.90;;;5.53;;
6109;SDS011;3085;49.444;11.054;2024-02-16T14:25:59;12.97;;;5.50;;
6109;SDS011;3085;49.444;11.054;2024-02-16T14:28:26;22.23;;;8.20;;
6109;SDS011;3085;49.444;11.054;2024-02-16T14:30:52;14.17;;;6.00;;
6109;SDS011;3085;49.444;11.054;2024-02-16T14:33:19;9.00;;;5.10;;
6109;SDS011;3085;49.444;11.054;2024-02-16T14:35:46;8.13;;;4.70;;
6109;SDS011;3085;49.444;11.054;2024-02-16T14:38:14;7.20;;;3.80;;
6109;SDS011;3085;49.444;11.054;2024-02-16T14:40:41;8.87;;;4.97;;
6109;SDS011;3085;49.444;11.054;2024-02-16T14:43:08;7.43;;;4.60;;
6109;SDS011;3085;49.444;11.054;2024-02-16T14:45:35;9.70;;;4.53;;
6109;SDS011;3085;49.444;11.054;2024-02-16T14:48:03;12.13;;;5.73;;
6109;SDS011;3085;49.444;11.054;2024-02-16T14:50:30;10.57;;;4.60;;
6109;SDS011;3085;49.444;11.054;2024-02-16T14:52:57;14.30;;;7.00;;
6109;SDS011;3085;49.444;11.054;2024-02-16T14:55:25;10.23;;;5.67;;
6109;SDS011;3085;49.444;11.054;2024-02-16T14:57:52;11.33;;;5.00;;